sensor_id;sensor_type;location;lat;lon;timestamp;temperature;humidity
23116;DHT22;11727;52.134;5.052;2023-04-24T00:01:13;9.10;99.90
23116;DHT22;11727;52.134;5.052;2023-04-24T00:03:40;9.10;99.90
23116;DHT22;11727;52.134;5.052;2023-04-24T00:06:06;9.20;99.90
23116;DHT22;11727;52.134;5.052;2023-04-24T00:08:36;9.20;99.90
23116;DHT22;11727;52.134;5.052;2023-04-24T00:11:02;9.20;99.90
23116;DHT22;11727;52.134;5.052;2023-04-24T00:13:27;9.20;99.90
23116;DHT22;11727;52.134;5.052;2023-04-24T00:15:54;9.30;99.90
23116;DHT22;11727;52.134;5.052;2023-04-24T00:18:21;9.30;99.90
23116;DHT22;11727;52.134;5.052;2023-04-24T00:20:47;9.30;99.90
23116;DHT22;11727;52.134;5.052;2023-04-24T00:23:13;9.20;99.90
23116;DHT22;11727;52.134;5.052;2023-04-24T00:25:38;9.30;99.90
23116;DHT22;11727;52.134;5.052;2023-04-24T00:28:05;9.20;99.90
23116;DHT22;11727;52.134;5.052;2023-04-24T00:30:31;9.20;99.90
23116;DHT22;11727;52.134;5.052;2023-04-24T00:32:57;9.20;99.90
23116;DHT22;11727;52.134;5.052;2023-04-24T00:35:23;9.20;99.90
23116;DHT22;11727;52.134;5.052;2023-04-24T00:37:48;9.20;99.90
23116;DHT22;11727;52.134;5.052;2023-04-24T00:40:15;9.20;99.90
23116;DHT22;11727;52.134;5.052;2023-04-24T00:42:40;9.20;99.90
23116;DHT22;11727;52.134;5.052;2023-04-24T00:45:06;9.30;99.90
23116;DHT22;11727;52.134;5.052;2023-04-24T00:47:35;9.30;99.90
23116;DHT22;11727;52.134;5.052;2023-04-24T00:50:03;9.30;99.90
23116;DHT22;11727;52.134;5.052;2023-04-24T00:52:29;9.30;99.90
23116;DHT22;11727;52.134;5.052;2023-04-24T00:54:56;9.30;99.90
23116;DHT22;11727;52.134;5.052;2023-04-24T00:57:22;9.30;99.90
23116;DHT22;11727;52.134;5.052;2023-04-24T00:59:49;9.30;99.90
23116;DHT22;11727;52.134;5.052;2023-04-24T01:02:15;9.30;99.90
23116;DHT22;11727;52.134;5.052;2023-04-24T01:04:41;9.30;99.90
23116;DHT22;11727;52.134;5.052;2023-04-24T01:07:07;9.30;99.90
23116;DHT22;11727;52.134;5.052;2023-04-24T01:09:39;9.40;99.90
23116;DHT22;11727;52.134;5.052;2023-04-24T01:12:07;9.40;99.90
23116;DHT22;11727;52.134;5.052;2023-04-24T01:14:33;9.40;99.90
23116;DHT22;11727;52.134;5.052;2023-04-24T01:16:59;9.40;99.90
23116;DHT22;11727;52.134;5.052;2023-04-24T01:19:24;9.40;99.90
23116;DHT22;11727;52.134;5.052;2023-04-24T01:21:51;9.40;99.90
23116;DHT22;11727;52.134;5.052;2023-04-24T01:24:19;9.30;99.90
23116;DHT22;11727;52.134;5.052;2023-04-24T01:26:45;9.30;99.90
23116;DHT22;11727;52.134;5.052;2023-04-24T01:29:11;9.30;99.90
23116;DHT22;11727;52.134;5.052;2023-04-24T01:31:38;9.30;99.90
23116;DHT22;11727;52.134;5.052;2023-04-24T01:34:05;9.20;99.90
23116;DHT22;11727;52.134;5.052;2023-04-24T01:36:31;9.30;99.90
23116;DHT22;11727;52.134;5.052;2023-04-24T01:38:57;9.30;99.90
23116;DHT22;11727;52.134;5.052;2023-04-24T01:41:24;9.30;99.90
23116;DHT22;11727;52.134;5.052;2023-04-24T01:43:50;9.30;99.90
23116;DHT22;11727;52.134;5.052;2023-04-24T01:46:16;9.30;99.90
23116;DHT22;11727;52.134;5.052;2023-04-24T01:48:42;9.30;99.90
23116;DHT22;11727;52.134;5.052;2023-04-24T01:51:08;9.30;99.90
23116;DHT22;11727;52.134;5.052;2023-04-24T01:53:33;9.30;99.90
23116;DHT22;11727;52.134;5.052;2023-04-24T01:55:59;9.30;99.90
23116;DHT22;11727;52.134;5.052;2023-04-24T01:58:26;9.30;99.90
23116;DHT22;11727;52.134;5.052;2023-04-24T02:00:52;9.30;99.90
23116;DHT22;11727;52.134;5.052;2023-04-24T02:03:18;9.30;99.90
23116;DHT22;11727;52.134;5.052;2023-04-24T02:05:44;9.30;99.90
23116;DHT22;11727;52.134;5.052;2023-04-24T02:08:10;9.30;99.90
23116;DHT22;11727;52.134;5.052;2023-04-24T02:10:36;9.30;99.90
23116;DHT22;11727;52.134;5.052;2023-04-24T02:13:01;9.20;99.90
23116;DHT22;11727;52.134;5.052;2023-04-24T02:15:27;9.30;99.90
23116;DHT22;11727;52.134;5.052;2023-04-24T02:17:53;9.30;99.90
23116;DHT22;11727;52.134;5.052;2023-04-24T02:20:19;9.20;99.90
23116;DHT22;11727;52.134;5.052;2023-04-24T02:22:44;9.20;99.90
23116;DHT22;11727;52.134;5.052;2023-04-24T02:25:10;9.20;99.90
23116;DHT22;11727;52.134;5.052;2023-04-24T02:27:36;9.20;99.90
23116;DHT22;11727;52.134;5.052;2023-04-24T02:30:02;9.20;99.90
23116;DHT22;11727;52.134;5.052;2023-04-24T02:32:28;9.20;99.90
23116;DHT22;11727;52.134;5.052;2023-04-24T02:34:54;9.20;99.90
23116;DHT22;11727;52.134;5.052;2023-04-24T02:37:19;9.20;99.90
23116;DHT22;11727;52.134;5.052;2023-04-24T02:39:45;9.20;99.90
23116;DHT22;11727;52.134;5.052;2023-04-24T02:42:10;9.20;99.90
23116;DHT22;11727;52.134;5.052;2023-04-24T02:44:36;9.20;99.90
23116;DHT22;11727;52.134;5.052;2023-04-24T02:47:02;9.20;99.90
23116;DHT22;11727;52.134;5.052;2023-04-24T02:49:27;9.20;99.90
23116;DHT22;11727;52.134;5.052;2023-04-24T02:51:53;9.20;99.90
23116;DHT22;11727;52.134;5.052;2023-04-24T02:54:19;9.20;99.90
23116;DHT22;11727;52.134;5.052;2023-04-24T02:56:44;9.20;99.90
23116;DHT22;11727;52.134;5.052;2023-04-24T02:59:10;9.20;99.90
23116;DHT22;11727;52.134;5.052;2023-04-24T03:01:36;9.10;99.90
23116;DHT22;11727;52.134;5.052;2023-04-24T03:04:01;9.20;99.90
23116;DHT22;11727;52.134;5.052;2023-04-24T03:06:27;9.10;99.90
23116;DHT22;11727;52.134;5.052;2023-04-24T03:08:53;9.10;99.90
23116;DHT22;11727;52.134;5.052;2023-04-24T03:11:20;9.10;99.90
23116;DHT22;11727;52.134;5.052;2023-04-24T03:13:45;9.10;99.90
23116;DHT22;11727;52.134;5.052;2023-04-24T03:16:11;9.00;99.90
23116;DHT22;11727;52.134;5.052;2023-04-24T03:18:36;9.00;99.90
23116;DHT22;11727;52.134;5.052;2023-04-24T03:21:02;9.00;99.90
23116;DHT22;11727;52.134;5.052;2023-04-24T03:23:28;9.00;99.90
23116;DHT22;11727;52.134;5.052;2023-04-24T03:25:54;9.00;99.90
23116;DHT22;11727;52.134;5.052;2023-04-24T03:28:20;9.00;99.90
23116;DHT22;11727;52.134;5.052;2023-04-24T03:30:46;9.10;99.90
23116;DHT22;11727;52.134;5.052;2023-04-24T03:33:11;9.00;99.90
23116;DHT22;11727;52.134;5.052;2023-04-24T03:35:37;9.10;99.90
23116;DHT22;11727;52.134;5.052;2023-04-24T03:38:02;9.00;99.90
23116;DHT22;11727;52.134;5.052;2023-04-24T03:40:30;9.10;99.90
23116;DHT22;11727;52.134;5.052;2023-04-24T03:42:55;9.10;99.90
23116;DHT22;11727;52.134;5.052;2023-04-24T03:45:21;9.10;99.90
23116;DHT22;11727;52.134;5.052;2023-04-24T03:47:47;9.10;99.90
23116;DHT22;11727;52.134;5.052;2023-04-24T03:50:12;9.10;99.90
23116;DHT22;11727;52.134;5.052;2023-04-24T03:52:38;9.10;99.90
23116;DHT22;11727;52.134;5.052;2023-04-24T03:55:04;9.20;99.90
23116;DHT22;11727;52.134;5.052;2023-04-24T03:57:29;9.20;99.90
23116;DHT22;11727;52.134;5.052;2023-04-24T03:59:55;9.20;99.90
23116;DHT22;11727;52.134;5.052;2023-04-24T04:02:21;9.20;99.90
23116;DHT22;11727;52.134;5.052;2023-04-24T04:04:46;9.20;99.90
23116;DHT22;11727;52.134;5.052;2023-04-24T04:07:12;9.20;99.90
23116;DHT22;11727;52.134;5.052;2023-04-24T04:09:38;9.20;99.90
23116;DHT22;11727;52.134;5.052;2023-04-24T04:12:03;9.20;99.90
23116;DHT22;11727;52.134;5.052;2023-04-24T04:14:29;9.30;99.90
23116;DHT22;11727;52.134;5.052;2023-04-24T04:16:55;9.30;99.90
23116;DHT22;11727;52.134;5.052;2023-04-24T04:19:20;9.30;99.90
23116;DHT22;11727;52.134;5.052;2023-04-24T04:21:46;9.30;99.90
23116;DHT22;11727;52.134;5.052;2023-04-24T04:24:16;9.30;99.90
23116;DHT22;11727;52.134;5.052;2023-04-24T04:26:41;9.30;99.90
23116;DHT22;11727;52.134;5.052;2023-04-24T04:29:13;9.30;99.90
23116;DHT22;11727;52.134;5.052;2023-04-24T04:31:39;9.30;99.90
23116;DHT22;11727;52.134;5.052;2023-04-24T04:34:04;9.30;99.90
23116;DHT22;11727;52.134;5.052;2023-04-24T04:36:31;9.30;99.90
23116;DHT22;11727;52.134;5.052;2023-04-24T04:38:56;9.30;99.90
23116;DHT22;11727;52.134;5.052;2023-04-24T04:41:24;9.20;99.90
23116;DHT22;11727;52.134;5.052;2023-04-24T04:43:50;9.20;99.90
23116;DHT22;11727;52.134;5.052;2023-04-24T04:46:16;9.20;99.90
23116;DHT22;11727;52.134;5.052;2023-04-24T04:48:41;9.10;99.90
23116;DHT22;11727;52.134;5.052;2023-04-24T04:51:07;9.10;99.90
23116;DHT22;11727;52.134;5.052;2023-04-24T04:53:33;9.00;99.90
23116;DHT22;11727;52.134;5.052;2023-04-24T04:55:58;8.90;99.90
23116;DHT22;11727;52.134;5.052;2023-04-24T04:58:25;8.90;99.90
23116;DHT22;11727;52.134;5.052;2023-04-24T05:00:50;8.70;99.90
23116;DHT22;11727;52.134;5.052;2023-04-24T05:03:16;8.70;99.90
23116;DHT22;11727;52.134;5.052;2023-04-24T05:05:41;8.60;99.90
23116;DHT22;11727;52.134;5.052;2023-04-24T05:08:07;8.60;99.90
23116;DHT22;11727;52.134;5.052;2023-04-24T05:10:33;8.60;99.90
23116;DHT22;11727;52.134;5.052;2023-04-24T05:12:59;8.60;99.90
23116;DHT22;11727;52.134;5.052;2023-04-24T05:15:24;8.50;99.90
23116;DHT22;11727;52.134;5.052;2023-04-24T05:17:50;8.60;99.90
23116;DHT22;11727;52.134;5.052;2023-04-24T05:20:16;8.50;99.90
23116;DHT22;11727;52.134;5.052;2023-04-24T05:22:42;8.50;99.90
23116;DHT22;11727;52.134;5.052;2023-04-24T05:25:07;8.50;99.90
23116;DHT22;11727;52.134;5.052;2023-04-24T05:27:33;8.50;99.90
23116;DHT22;11727;52.134;5.052;2023-04-24T05:29:59;8.50;99.90
23116;DHT22;11727;52.134;5.052;2023-04-24T05:32:25;8.60;99.90
23116;DHT22;11727;52.134;5.052;2023-04-24T05:34:52;8.50;99.90
23116;DHT22;11727;52.134;5.052;2023-04-24T05:37:18;8.60;99.90
23116;DHT22;11727;52.134;5.052;2023-04-24T05:39:43;8.60;99.90
23116;DHT22;11727;52.134;5.052;2023-04-24T05:42:09;8.60;99.90
23116;DHT22;11727;52.134;5.052;2023-04-24T05:44:34;8.60;99.90
23116;DHT22;11727;52.134;5.052;2023-04-24T05:47:00;8.60;99.90
23116;DHT22;11727;52.134;5.052;2023-04-24T05:49:26;8.70;99.90
23116;DHT22;11727;52.134;5.052;2023-04-24T05:51:51;8.70;99.90
23116;DHT22;11727;52.134;5.052;2023-04-24T05:54:17;8.70;99.90
23116;DHT22;11727;52.134;5.052;2023-04-24T05:56:42;8.70;99.90
23116;DHT22;11727;52.134;5.052;2023-04-24T05:59:08;8.70;99.90
23116;DHT22;11727;52.134;5.052;2023-04-24T06:01:34;8.80;99.90
23116;DHT22;11727;52.134;5.052;2023-04-24T06:03:59;8.70;99.90
23116;DHT22;11727;52.134;5.052;2023-04-24T06:06:26;8.80;99.90
23116;DHT22;11727;52.134;5.052;2023-04-24T06:08:52;8.80;99.90
23116;DHT22;11727;52.134;5.052;2023-04-24T06:11:18;8.70;99.90
23116;DHT22;11727;52.134;5.052;2023-04-24T06:13:43;8.70;99.90
23116;DHT22;11727;52.134;5.052;2023-04-24T06:16:10;8.70;99.90
23116;DHT22;11727;52.134;5.052;2023-04-24T06:18:35;8.60;99.90
23116;DHT22;11727;52.134;5.052;2023-04-24T06:21:01;8.60;99.90
23116;DHT22;11727;52.134;5.052;2023-04-24T06:23:27;8.60;99.90
23116;DHT22;11727;52.134;5.052;2023-04-24T06:25:52;8.60;99.90
23116;DHT22;11727;52.134;5.052;2023-04-24T06:28:18;8.60;99.90
23116;DHT22;11727;52.134;5.052;2023-04-24T06:30:43;8.60;99.90
23116;DHT22;11727;52.134;5.052;2023-04-24T06:33:09;8.60;99.90
23116;DHT22;11727;52.134;5.052;2023-04-24T06:35:36;8.50;99.90
23116;DHT22;11727;52.134;5.052;2023-04-24T06:38:03;8.50;99.90
23116;DHT22;11727;52.134;5.052;2023-04-24T06:40:28;8.40;99.90
23116;DHT22;11727;52.134;5.052;2023-04-24T06:42:54;8.40;99.90
23116;DHT22;11727;52.134;5.052;2023-04-24T06:45:20;8.40;99.90
23116;DHT22;11727;52.134;5.052;2023-04-24T06:47:46;8.40;99.90
23116;DHT22;11727;52.134;5.052;2023-04-24T06:50:11;8.40;99.90
23116;DHT22;11727;52.134;5.052;2023-04-24T06:52:37;8.30;99.90
23116;DHT22;11727;52.134;5.052;2023-04-24T06:55:03;8.30;99.90
23116;DHT22;11727;52.134;5.052;2023-04-24T06:57:30;8.30;99.90
23116;DHT22;11727;52.134;5.052;2023-04-24T06:59:55;8.30;99.90
23116;DHT22;11727;52.134;5.052;2023-04-24T07:02:21;8.30;99.90
23116;DHT22;11727;52.134;5.052;2023-04-24T07:04:47;8.30;99.90
23116;DHT22;11727;52.134;5.052;2023-04-24T07:07:13;8.30;99.90
23116;DHT22;11727;52.134;5.052;2023-04-24T07:09:42;8.30;99.90
23116;DHT22;11727;52.134;5.052;2023-04-24T07:12:14;8.30;99.90
23116;DHT22;11727;52.134;5.052;2023-04-24T07:14:43;8.30;99.90
23116;DHT22;11727;52.134;5.052;2023-04-24T07:17:08;8.30;99.90
23116;DHT22;11727;52.134;5.052;2023-04-24T07:19:34;8.40;99.90
23116;DHT22;11727;52.134;5.052;2023-04-24T07:22:03;8.40;99.90
23116;DHT22;11727;52.134;5.052;2023-04-24T07:24:29;8.40;99.90
23116;DHT22;11727;52.134;5.052;2023-04-24T07:26:55;8.30;99.90
23116;DHT22;11727;52.134;5.052;2023-04-24T07:29:20;8.40;99.90
23116;DHT22;11727;52.134;5.052;2023-04-24T07:31:46;8.40;99.90
23116;DHT22;11727;52.134;5.052;2023-04-24T07:34:12;8.40;99.90
23116;DHT22;11727;52.134;5.052;2023-04-24T07:36:37;8.40;99.90
23116;DHT22;11727;52.134;5.052;2023-04-24T07:39:10;8.40;99.90
23116;DHT22;11727;52.134;5.052;2023-04-24T07:41:35;8.40;99.90
23116;DHT22;11727;52.134;5.052;2023-04-24T07:44:01;8.40;99.90
23116;DHT22;11727;52.134;5.052;2023-04-24T07:46:26;8.40;99.90
23116;DHT22;11727;52.134;5.052;2023-04-24T07:48:55;8.40;99.90
23116;DHT22;11727;52.134;5.052;2023-04-24T07:51:20;8.40;99.90
23116;DHT22;11727;52.134;5.052;2023-04-24T07:53:46;8.40;99.90
23116;DHT22;11727;52.134;5.052;2023-04-24T07:56:12;8.40;99.90
23116;DHT22;11727;52.134;5.052;2023-04-24T07:58:37;8.40;99.90
23116;DHT22;11727;52.134;5.052;2023-04-24T08:01:03;8.40;99.90
23116;DHT22;11727;52.134;5.052;2023-04-24T08:03:28;8.40;99.90
23116;DHT22;11727;52.134;5.052;2023-04-24T08:05:54;8.40;99.90
23116;DHT22;11727;52.134;5.052;2023-04-24T08:08:22;8.40;99.90
23116;DHT22;11727;52.134;5.052;2023-04-24T08:10:47;8.40;99.90
23116;DHT22;11727;52.134;5.052;2023-04-24T08:13:13;8.40;99.90
23116;DHT22;11727;52.134;5.052;2023-04-24T08:15:39;8.40;99.90
23116;DHT22;11727;52.134;5.052;2023-04-24T08:18:05;8.40;99.90
23116;DHT22;11727;52.134;5.052;2023-04-24T08:20:31;8.50;99.90
23116;DHT22;11727;52.134;5.052;2023-04-24T08:22:56;8.50;99.90
23116;DHT22;11727;52.134;5.052;2023-04-24T08:25:22;8.50;99.90
23116;DHT22;11727;52.134;5.052;2023-04-24T08:27:50;8.50;99.90
23116;DHT22;11727;52.134;5.052;2023-04-24T08:30:16;8.50;99.90
23116;DHT22;11727;52.134;5.052;2023-04-24T08:32:44;8.50;99.90
23116;DHT22;11727;52.134;5.052;2023-04-24T08:35:10;8.50;99.90
23116;DHT22;11727;52.134;5.052;2023-04-24T08:37:36;8.50;99.90
23116;DHT22;11727;52.134;5.052;2023-04-24T08:40:06;8.50;99.90
23116;DHT22;11727;52.134;5.052;2023-04-24T08:42:37;8.50;99.90
23116;DHT22;11727;52.134;5.052;2023-04-24T08:45:03;8.60;99.90
23116;DHT22;11727;52.134;5.052;2023-04-24T08:47:29;8.60;99.90
23116;DHT22;11727;52.134;5.052;2023-04-24T08:49:56;8.60;99.90
23116;DHT22;11727;52.134;5.052;2023-04-24T08:52:22;8.60;99.90
23116;DHT22;11727;52.134;5.052;2023-04-24T08:54:48;8.60;99.90
23116;DHT22;11727;52.134;5.052;2023-04-24T08:57:14;8.60;99.90
23116;DHT22;11727;52.134;5.052;2023-04-24T08:59:40;8.60;99.90
23116;DHT22;11727;52.134;5.052;2023-04-24T09:02:10;8.60;99.90
23116;DHT22;11727;52.134;5.052;2023-04-24T09:04:36;8.60;99.90
23116;DHT22;11727;52.134;5.052;2023-04-24T09:07:03;8.60;99.90
23116;DHT22;11727;52.134;5.052;2023-04-24T09:09:32;8.60;99.90
23116;DHT22;11727;52.134;5.052;2023-04-24T09:11:58;8.60;99.90
23116;DHT22;11727;52.134;5.052;2023-04-24T09:14:24;8.70;99.90
23116;DHT22;11727;52.134;5.052;2023-04-24T09:16:50;8.80;99.90
23116;DHT22;11727;52.134;5.052;2023-04-24T09:19:16;8.80;99.90
23116;DHT22;11727;52.134;5.052;2023-04-24T09:21:46;8.90;99.90
23116;DHT22;11727;52.134;5.052;2023-04-24T09:24:21;8.80;99.90
23116;DHT22;11727;52.134;5.052;2023-04-24T09:26:58;8.90;99.90
23116;DHT22;11727;52.134;5.052;2023-04-24T09:29:29;8.90;99.90
23116;DHT22;11727;52.134;5.052;2023-04-24T09:31:55;9.10;99.90
23116;DHT22;11727;52.134;5.052;2023-04-24T09:34:23;9.10;99.90
23116;DHT22;11727;52.134;5.052;2023-04-24T09:36:49;9.10;99.90
23116;DHT22;11727;52.134;5.052;2023-04-24T09:39:16;9.20;99.90
23116;DHT22;11727;52.134;5.052;2023-04-24T09:41:49;9.30;99.90
23116;DHT22;11727;52.134;5.052;2023-04-24T09:46:44;9.20;99.90
23116;DHT22;11727;52.134;5.052;2023-04-24T09:49:13;9.20;99.90
23116;DHT22;11727;52.134;5.052;2023-04-24T09:51:40;9.10;99.90
23116;DHT22;11727;52.134;5.052;2023-04-24T09:54:20;9.10;99.90
23116;DHT22;11727;52.134;5.052;2023-04-24T09:56:57;9.10;99.90
23116;DHT22;11727;52.134;5.052;2023-04-24T09:59:25;9.00;99.90
23116;DHT22;11727;52.134;5.052;2023-04-24T10:01:54;8.80;99.90
23116;DHT22;11727;52.134;5.052;2023-04-24T10:04:21;8.70;99.90
23116;DHT22;11727;52.134;5.052;2023-04-24T10:06:49;8.60;99.90
23116;DHT22;11727;52.134;5.052;2023-04-24T10:09:21;8.50;99.90
23116;DHT22;11727;52.134;5.052;2023-04-24T10:11:49;8.60;99.90
23116;DHT22;11727;52.134;5.052;2023-04-24T10:14:23;8.60;99.90
23116;DHT22;11727;52.134;5.052;2023-04-24T10:16:50;8.70;99.90
23116;DHT22;11727;52.134;5.052;2023-04-24T10:19:18;8.90;99.90
23116;DHT22;11727;52.134;5.052;2023-04-24T10:21:44;9.00;99.90
23116;DHT22;11727;52.134;5.052;2023-04-24T10:24:17;9.10;99.90
23116;DHT22;11727;52.134;5.052;2023-04-24T10:26:44;9.30;99.90
23116;DHT22;11727;52.134;5.052;2023-04-24T10:29:11;9.50;99.90
23116;DHT22;11727;52.134;5.052;2023-04-24T10:31:38;9.60;99.90
23116;DHT22;11727;52.134;5.052;2023-04-24T10:34:05;9.80;99.90
23116;DHT22;11727;52.134;5.052;2023-04-24T10:36:40;9.90;99.90
23116;DHT22;11727;52.134;5.052;2023-04-24T10:39:09;10.10;99.90
23116;DHT22;11727;52.134;5.052;2023-04-24T10:41:37;10.20;99.90
23116;DHT22;11727;52.134;5.052;2023-04-24T10:44:10;10.30;99.90
23116;DHT22;11727;52.134;5.052;2023-04-24T10:46:37;10.40;99.90
23116;DHT22;11727;52.134;5.052;2023-04-24T10:49:07;10.30;99.90
23116;DHT22;11727;52.134;5.052;2023-04-24T10:51:49;10.20;99.90
23116;DHT22;11727;52.134;5.052;2023-04-24T10:54:28;10.00;99.90
23116;DHT22;11727;52.134;5.052;2023-04-24T10:59:48;9.50;99.90
23116;DHT22;11727;52.134;5.052;2023-04-24T11:02:14;9.20;99.90
23116;DHT22;11727;52.134;5.052;2023-04-24T11:04:44;9.00;99.90
23116;DHT22;11727;52.134;5.052;2023-04-24T11:07:10;8.70;99.90
23116;DHT22;11727;52.134;5.052;2023-04-24T11:09:36;8.60;99.90
23116;DHT22;11727;52.134;5.052;2023-04-24T11:12:06;8.50;99.90
23116;DHT22;11727;52.134;5.052;2023-04-24T11:17:35;8.70;99.90
23116;DHT22;11727;52.134;5.052;2023-04-24T11:20:10;8.70;99.90
23116;DHT22;11727;52.134;5.052;2023-04-24T11:22:38;8.80;99.90
23116;DHT22;11727;52.134;5.052;2023-04-24T11:25:06;8.90;99.90
23116;DHT22;11727;52.134;5.052;2023-04-24T11:27:39;9.00;99.90
23116;DHT22;11727;52.134;5.052;2023-04-24T11:30:05;9.20;99.90
23116;DHT22;11727;52.134;5.052;2023-04-24T11:35:14;9.60;99.90
23116;DHT22;11727;52.134;5.052;2023-04-24T11:37:47;9.80;99.90
23116;DHT22;11727;52.134;5.052;2023-04-24T11:40:17;10.00;99.90
23116;DHT22;11727;52.134;5.052;2023-04-24T11:42:46;10.10;99.90
23116;DHT22;11727;52.134;5.052;2023-04-24T11:45:15;10.30;99.90
23116;DHT22;11727;52.134;5.052;2023-04-24T11:47:44;10.50;99.90
23116;DHT22;11727;52.134;5.052;2023-04-24T11:50:12;10.50;99.90
23116;DHT22;11727;52.134;5.052;2023-04-24T11:52:40;10.40;99.90
23116;DHT22;11727;52.134;5.052;2023-04-24T11:55:25;10.30;99.90
23116;DHT22;11727;52.134;5.052;2023-04-24T11:57:56;10.10;99.90
23116;DHT22;11727;52.134;5.052;2023-04-24T12:00:32;10.10;99.90
23116;DHT22;11727;52.134;5.052;2023-04-24T12:03:09;10.20;99.90
23116;DHT22;11727;52.134;5.052;2023-04-24T12:05:35;10.40;99.90
23116;DHT22;11727;52.134;5.052;2023-04-24T12:08:01;10.60;99.90
23116;DHT22;11727;52.134;5.052;2023-04-24T12:10:29;10.80;99.90
23116;DHT22;11727;52.134;5.052;2023-04-24T12:12:56;11.00;99.90
23116;DHT22;11727;52.134;5.052;2023-04-24T12:15:22;11.20;99.90
23116;DHT22;11727;52.134;5.052;2023-04-24T12:17:51;11.10;99.90
23116;DHT22;11727;52.134;5.052;2023-04-24T12:20:17;10.90;99.90
23116;DHT22;11727;52.134;5.052;2023-04-24T12:22:47;10.70;99.90
23116;DHT22;11727;52.134;5.052;2023-04-24T12:25:15;10.60;99.90
23116;DHT22;11727;52.134;5.052;2023-04-24T12:27:45;10.70;99.90
23116;DHT22;11727;52.134;5.052;2023-04-24T12:30:15;10.60;99.90
23116;DHT22;11727;52.134;5.052;2023-04-24T12:32:43;10.50;99.90
23116;DHT22;11727;52.134;5.052;2023-04-24T12:35:10;10.30;99.90
23116;DHT22;11727;52.134;5.052;2023-04-24T12:37:41;10.10;99.90
23116;DHT22;11727;52.134;5.052;2023-04-24T12:40:10;10.00;99.90
23116;DHT22;11727;52.134;5.052;2023-04-24T12:42:45;10.00;99.90
23116;DHT22;11727;52.134;5.052;2023-04-24T12:45:12;9.90;99.90
23116;DHT22;11727;52.134;5.052;2023-04-24T12:47:39;9.80;99.90
23116;DHT22;11727;52.134;5.052;2023-04-24T12:50:06;9.70;99.90
23116;DHT22;11727;52.134;5.052;2023-04-24T12:52:32;9.50;99.90
23116;DHT22;11727;52.134;5.052;2023-04-24T12:54:59;9.50;99.90
23116;DHT22;11727;52.134;5.052;2023-04-24T12:57:27;9.50;99.90
23116;DHT22;11727;52.134;5.052;2023-04-24T12:59:58;9.50;99.90
23116;DHT22;11727;52.134;5.052;2023-04-24T13:02:25;9.70;99.90
23116;DHT22;11727;52.134;5.052;2023-04-24T13:04:52;9.80;99.90
23116;DHT22;11727;52.134;5.052;2023-04-24T13:07:17;10.20;99.90
23116;DHT22;11727;52.134;5.052;2023-04-24T13:09:44;10.30;99.90
23116;DHT22;11727;52.134;5.052;2023-04-24T13:12:11;10.30;99.90
23116;DHT22;11727;52.134;5.052;2023-04-24T13:14:37;10.20;99.90
23116;DHT22;11727;52.134;5.052;2023-04-24T13:17:03;10.20;99.90
23116;DHT22;11727;52.134;5.052;2023-04-24T13:19:29;10.30;99.90
23116;DHT22;11727;52.134;5.052;2023-04-24T13:21:56;10.50;99.90
23116;DHT22;11727;52.134;5.052;2023-04-24T13:24:25;11.00;99.90
23116;DHT22;11727;52.134;5.052;2023-04-24T13:26:54;11.70;99.90
23116;DHT22;11727;52.134;5.052;2023-04-24T13:29:22;12.00;99.90
23116;DHT22;11727;52.134;5.052;2023-04-24T13:31:50;11.80;99.90
23116;DHT22;11727;52.134;5.052;2023-04-24T13:34:17;11.50;99.90
23116;DHT22;11727;52.134;5.052;2023-04-24T13:36:42;11.40;99.90
23116;DHT22;11727;52.134;5.052;2023-04-24T13:39:08;11.70;99.90
23116;DHT22;11727;52.134;5.052;2023-04-24T13:41:34;11.70;99.90
23116;DHT22;11727;52.134;5.052;2023-04-24T13:44:01;11.60;99.90
23116;DHT22;11727;52.134;5.052;2023-04-24T13:46:27;11.60;99.90
23116;DHT22;11727;52.134;5.052;2023-04-24T13:48:53;11.60;99.90
23116;DHT22;11727;52.134;5.052;2023-04-24T13:51:18;11.50;99.90
23116;DHT22;11727;52.134;5.052;2023-04-24T13:53:44;11.40;99.90
23116;DHT22;11727;52.134;5.052;2023-04-24T13:56:10;11.20;99.90
23116;DHT22;11727;52.134;5.052;2023-04-24T13:58:35;11.10;99.90
23116;DHT22;11727;52.134;5.052;2023-04-24T14:01:02;11.00;99.90
23116;DHT22;11727;52.134;5.052;2023-04-24T14:03:28;11.00;99.90
23116;DHT22;11727;52.134;5.052;2023-04-24T14:05:54;11.00;99.90
23116;DHT22;11727;52.134;5.052;2023-04-24T14:08:20;11.00;99.90
23116;DHT22;11727;52.134;5.052;2023-04-24T14:10:45;11.00;99.90
23116;DHT22;11727;52.134;5.052;2023-04-24T14:13:11;11.10;99.90
23116;DHT22;11727;52.134;5.052;2023-04-24T14:15:37;11.20;99.90
23116;DHT22;11727;52.134;5.052;2023-04-24T14:18:04;11.30;99.90
23116;DHT22;11727;52.134;5.052;2023-04-24T14:20:30;11.20;99.90
23116;DHT22;11727;52.134;5.052;2023-04-24T14:22:56;11.20;99.90
23116;DHT22;11727;52.134;5.052;2023-04-24T14:25:24;11.10;99.90
23116;DHT22;11727;52.134;5.052;2023-04-24T14:27:50;11.00;99.90
23116;DHT22;11727;52.134;5.052;2023-04-24T14:30:16;10.80;99.90
23116;DHT22;11727;52.134;5.052;2023-04-24T14:32:41;10.90;99.90
23116;DHT22;11727;52.134;5.052;2023-04-24T14:35:07;11.00;99.90
23116;DHT22;11727;52.134;5.052;2023-04-24T14:37:33;11.00;99.90
23116;DHT22;11727;52.134;5.052;2023-04-24T14:39:59;11.40;99.90
23116;DHT22;11727;52.134;5.052;2023-04-24T14:42:24;12.00;99.90
23116;DHT22;11727;52.134;5.052;2023-04-24T14:44:50;12.40;99.90
23116;DHT22;11727;52.134;5.052;2023-04-24T14:47:16;12.50;99.90
23116;DHT22;11727;52.134;5.052;2023-04-24T14:49:47;12.40;99.90
23116;DHT22;11727;52.134;5.052;2023-04-24T14:52:13;12.10;99.90
23116;DHT22;11727;52.134;5.052;2023-04-24T14:54:38;11.60;99.90
23116;DHT22;11727;52.134;5.052;2023-04-24T14:57:04;11.10;99.90
23116;DHT22;11727;52.134;5.052;2023-04-24T14:59:30;10.60;99.90
23116;DHT22;11727;52.134;5.052;2023-04-24T15:01:56;10.20;99.90
23116;DHT22;11727;52.134;5.052;2023-04-24T15:04:27;10.00;99.90
23116;DHT22;11727;52.134;5.052;2023-04-24T15:06:53;9.70;99.90
23116;DHT22;11727;52.134;5.052;2023-04-24T15:09:24;9.60;99.90
23116;DHT22;11727;52.134;5.052;2023-04-24T15:11:50;9.50;99.90
23116;DHT22;11727;52.134;5.052;2023-04-24T15:14:17;9.50;99.90
23116;DHT22;11727;52.134;5.052;2023-04-24T15:16:43;9.50;99.90
23116;DHT22;11727;52.134;5.052;2023-04-24T15:19:09;9.70;99.90
23116;DHT22;11727;52.134;5.052;2023-04-24T15:21:36;10.20;99.90
23116;DHT22;11727;52.134;5.052;2023-04-24T15:24:02;10.70;99.90
23116;DHT22;11727;52.134;5.052;2023-04-24T15:26:27;11.10;99.90
23116;DHT22;11727;52.134;5.052;2023-04-24T15:28:53;11.50;99.90
23116;DHT22;11727;52.134;5.052;2023-04-24T15:31:19;11.80;99.90
23116;DHT22;11727;52.134;5.052;2023-04-24T15:33:45;12.00;99.90
23116;DHT22;11727;52.134;5.052;2023-04-24T15:36:10;12.10;99.90
23116;DHT22;11727;52.134;5.052;2023-04-24T15:38:37;12.00;99.90
23116;DHT22;11727;52.134;5.052;2023-04-24T15:41:03;11.80;99.90
23116;DHT22;11727;52.134;5.052;2023-04-24T15:43:28;11.60;99.90
23116;DHT22;11727;52.134;5.052;2023-04-24T15:46:00;11.40;99.90
23116;DHT22;11727;52.134;5.052;2023-04-24T15:48:27;11.30;99.90
23116;DHT22;11727;52.134;5.052;2023-04-24T15:50:53;11.40;99.90